sensor_id;sensor_type;location;lat;lon;timestamp;P1;durP1;ratioP1;P2;durP2;ratioP2
24096;SDS011;12275;48.550;12.132;2022-07-23T00:01:32;11.73;;;10.52;;
24096;SDS011;12275;48.550;12.132;2022-07-23T00:03:58;15.80;;;11.45;;
24096;SDS011;12275;48.550;12.132;2022-07-23T00:06:24;14.65;;;11.10;;
24096;SDS011;12275;48.550;12.132;2022-07-23T00:08:50;17.90;;;11.50;;
24096;SDS011;12275;48.550;12.132;2022-07-23T00:11:16;17.52;;;11.70;;
24096;SDS011;12275;48.550;12.132;2022-07-23T00:13:42;12.82;;;11.57;;
24096;SDS011;12275;48.550;12.132;2022-07-23T00:16:08;17.15;;;11.45;;
24096;SDS011;12275;48.550;12.132;2022-07-23T00:18:34;15.00;;;11.73;;
24096;SDS011;12275;48.550;12.132;2022-07-23T00:20:59;17.42;;;11.43;;
24096;SDS011;12275;48.550;12.132;2022-07-23T00:23:25;15.07;;;11.30;;
24096;SDS011;12275;48.550;12.132;2022-07-23T00:25:52;13.80;;;12.15;;
24096;SDS011;12275;48.550;12.132;2022-07-23T00:28:18;13.45;;;12.07;;
24096;SDS011;12275;48.550;12.132;2022-07-23T00:30:44;17.33;;;11.85;;
24096;SDS011;12275;48.550;12.132;2022-07-23T00:33:10;13.73;;;11.25;;
24096;SDS011;12275;48.550;12.132;2022-07-23T00:35:38;18.83;;;12.60;;
24096;SDS011;12275;48.550;12.132;2022-07-23T00:38:06;16.55;;;11.60;;
24096;SDS011;12275;48.550;12.132;2022-07-23T00:40:35;15.00;;;11.93;;
24096;SDS011;12275;48.550;12.132;2022-07-23T00:43:02;16.15;;;11.27;;
24096;SDS011;12275;48.550;12.132;2022-07-23T00:45:28;14.23;;;11.52;;
24096;SDS011;12275;48.550;12.132;2022-07-23T00:47:54;16.45;;;10.85;;
24096;SDS011;12275;48.550;12.132;2022-07-23T00:50:20;12.13;;;10.93;;
24096;SDS011;12275;48.550;12.132;2022-07-23T00:52:45;12.25;;;10.40;;
24096;SDS011;12275;48.550;12.132;2022-07-23T00:55:11;11.95;;;10.75;;
24096;SDS011;12275;48.550;12.132;2022-07-23T00:57:38;15.10;;;10.73;;
24096;SDS011;12275;48.550;12.132;2022-07-23T01:00:05;17.73;;;10.82;;
24096;SDS011;12275;48.550;12.132;2022-07-23T01:02:33;12.15;;;10.95;;
24096;SDS011;12275;48.550;12.132;2022-07-23T01:04:58;12.40;;;10.80;;
24096;SDS011;12275;48.550;12.132;2022-07-23T01:07:24;11.95;;;9.40;;
24096;SDS011;12275;48.550;12.132;2022-07-23T01:09:50;11.95;;;10.38;;
24096;SDS011;12275;48.550;12.132;2022-07-23T01:12:17;17.08;;;10.63;;
24096;SDS011;12275;48.550;12.132;2022-07-23T01:14:43;12.23;;;10.98;;
24096;SDS011;12275;48.550;12.132;2022-07-23T01:17:08;14.18;;;11.10;;
24096;SDS011;12275;48.550;12.132;2022-07-23T01:19:34;13.93;;;10.05;;
24096;SDS011;12275;48.550;12.132;2022-07-23T01:22:01;13.65;;;10.65;;
24096;SDS011;12275;48.550;12.132;2022-07-23T01:24:28;12.77;;;10.20;;
24096;SDS011;12275;48.550;12.132;2022-07-23T01:26:54;13.57;;;10.77;;
24096;SDS011;12275;48.550;12.132;2022-07-23T01:29:20;14.68;;;9.82;;
24096;SDS011;12275;48.550;12.132;2022-07-23T01:31:46;14.07;;;10.50;;
24096;SDS011;12275;48.550;12.132;2022-07-23T01:34:13;13.70;;;10.55;;
24096;SDS011;12275;48.550;12.132;2022-07-23T01:36:38;15.18;;;10.85;;
24096;SDS011;12275;48.550;12.132;2022-07-23T01:39:05;12.13;;;10.38;;
24096;SDS011;12275;48.550;12.132;2022-07-23T01:41:32;13.23;;;10.65;;
24096;SDS011;12275;48.550;12.132;2022-07-23T01:43:58;11.98;;;10.82;;
24096;SDS011;12275;48.550;12.132;2022-07-23T01:46:24;13.27;;;11.57;;
24096;SDS011;12275;48.550;12.132;2022-07-23T01:48:49;11.18;;;9.70;;
24096;SDS011;12275;48.550;12.132;2022-07-23T01:51:15;18.05;;;10.90;;
24096;SDS011;12275;48.550;12.132;2022-07-23T01:53:41;12.27;;;10.15;;
24096;SDS011;12275;48.550;12.132;2022-07-23T01:56:07;10.85;;;9.65;;
24096;SDS011;12275;48.550;12.132;2022-07-23T01:58:33;10.80;;;9.70;;
24096;SDS011;12275;48.550;12.132;2022-07-23T02:00:58;14.25;;;8.95;;
24096;SDS011;12275;48.550;12.132;2022-07-23T02:03:25;10.93;;;9.82;;
24096;SDS011;12275;48.550;12.132;2022-07-23T02:05:51;15.70;;;10.35;;
24096;SDS011;12275;48.550;12.132;2022-07-23T02:08:17;13.52;;;9.82;;
24096;SDS011;12275;48.550;12.132;2022-07-23T02:10:43;16.38;;;9.25;;
24096;SDS011;12275;48.550;12.132;2022-07-23T02:13:09;15.50;;;9.27;;
24096;SDS011;12275;48.550;12.132;2022-07-23T02:15:34;12.07;;;8.55;;
24096;SDS011;12275;48.550;12.132;2022-07-23T02:18:00;16.70;;;9.20;;
24096;SDS011;12275;48.550;12.132;2022-07-23T02:20:26;10.13;;;8.20;;
24096;SDS011;12275;48.550;12.132;2022-07-23T02:22:51;10.70;;;8.13;;
24096;SDS011;12275;48.550;12.132;2022-07-23T02:25:17;10.65;;;7.75;;
24096;SDS011;12275;48.550;12.132;2022-07-23T02:27:43;15.10;;;8.18;;
24096;SDS011;12275;48.550;12.132;2022-07-23T02:30:09;11.77;;;7.70;;
24096;SDS011;12275;48.550;12.132;2022-07-23T02:32:35;10.80;;;8.48;;
24096;SDS011;12275;48.550;12.132;2022-07-23T02:35:02;12.50;;;7.10;;
24096;SDS011;12275;48.550;12.132;2022-07-23T02:37:28;8.00;;;7.20;;
24096;SDS011;12275;48.550;12.132;2022-07-23T02:39:54;8.35;;;6.65;;
24096;SDS011;12275;48.550;12.132;2022-07-23T02:42:19;9.95;;;6.45;;
24096;SDS011;12275;48.550;12.132;2022-07-23T02:44:46;9.45;;;6.70;;
24096;SDS011;12275;48.550;12.132;2022-07-23T02:47:11;15.50;;;6.78;;
24096;SDS011;12275;48.550;12.132;2022-07-23T02:49:37;11.35;;;6.35;;
24096;SDS011;12275;48.550;12.132;2022-07-23T02:52:03;8.90;;;5.75;;
24096;SDS011;12275;48.550;12.132;2022-07-23T02:54:29;10.30;;;6.15;;
24096;SDS011;12275;48.550;12.132;2022-07-23T02:56:55;8.48;;;6.38;;
24096;SDS011;12275;48.550;12.132;2022-07-23T02:59:20;9.25;;;5.88;;
24096;SDS011;12275;48.550;12.132;2022-07-23T03:01:46;8.60;;;5.72;;
24096;SDS011;12275;48.550;12.132;2022-07-23T03:04:12;8.57;;;5.47;;
24096;SDS011;12275;48.550;12.132;2022-07-23T03:06:38;8.32;;;5.60;;
24096;SDS011;12275;48.550;12.132;2022-07-23T03:09:04;8.93;;;5.93;;
24096;SDS011;12275;48.550;12.132;2022-07-23T03:11:29;13.68;;;5.50;;
24096;SDS011;12275;48.550;12.132;2022-07-23T03:13:55;13.98;;;5.35;;
24096;SDS011;12275;48.550;12.132;2022-07-23T03:16:21;5.60;;;4.90;;
24096;SDS011;12275;48.550;12.132;2022-07-23T03:18:47;9.85;;;5.30;;
24096;SDS011;12275;48.550;12.132;2022-07-23T03:21:12;5.45;;;4.53;;
24096;SDS011;12275;48.550;12.132;2022-07-23T03:23:38;8.15;;;4.32;;
24096;SDS011;12275;48.550;12.132;2022-07-23T03:26:04;7.25;;;4.30;;
24096;SDS011;12275;48.550;12.132;2022-07-23T03:28:30;5.72;;;4.25;;
24096;SDS011;12275;48.550;12.132;2022-07-23T03:30:55;9.85;;;4.75;;
24096;SDS011;12275;48.550;12.132;2022-07-23T03:33:21;7.18;;;4.38;;
24096;SDS011;12275;48.550;12.132;2022-07-23T03:35:47;5.82;;;4.57;;
24096;SDS011;12275;48.550;12.132;2022-07-23T03:38:13;7.00;;;4.40;;
24096;SDS011;12275;48.550;12.132;2022-07-23T03:40:39;6.18;;;4.70;;
24096;SDS011;12275;48.550;12.132;2022-07-23T03:43:05;5.65;;;4.43;;
24096;SDS011;12275;48.550;12.132;2022-07-23T03:45:31;6.32;;;4.32;;
24096;SDS011;12275;48.550;12.132;2022-07-23T03:47:57;10.15;;;4.03;;
24096;SDS011;12275;48.550;12.132;2022-07-23T03:50:23;6.97;;;4.20;;
24096;SDS011;12275;48.550;12.132;2022-07-23T03:52:49;4.57;;;4.03;;
24096;SDS011;12275;48.550;12.132;2022-07-23T03:55:15;5.30;;;4.25;;
24096;SDS011;12275;48.550;12.132;2022-07-23T03:57:41;7.75;;;3.97;;
24096;SDS011;12275;48.550;12.132;2022-07-23T04:00:07;6.43;;;3.58;;
24096;SDS011;12275;48.550;12.132;2022-07-23T04:02:35;6.18;;;4.70;;
24096;SDS011;12275;48.550;12.132;2022-07-23T04:05:01;5.78;;;3.90;;
24096;SDS011;12275;48.550;12.132;2022-07-23T04:07:27;6.15;;;3.83;;
24096;SDS011;12275;48.550;12.132;2022-07-23T04:09:53;4.97;;;4.18;;
24096;SDS011;12275;48.550;12.132;2022-07-23T04:12:19;6.38;;;3.80;;
24096;SDS011;12275;48.550;12.132;2022-07-23T04:14:45;6.60;;;4.05;;
24096;SDS011;12275;48.550;12.132;2022-07-23T04:17:11;9.40;;;4.25;;
24096;SDS011;12275;48.550;12.132;2022-07-23T04:19:37;6.20;;;3.80;;
24096;SDS011;12275;48.550;12.132;2022-07-23T04:22:07;6.18;;;3.95;;
24096;SDS011;12275;48.550;12.132;2022-07-23T04:24:34;4.50;;;3.75;;
24096;SDS011;12275;48.550;12.132;2022-07-23T04:27:00;6.22;;;3.72;;
24096;SDS011;12275;48.550;12.132;2022-07-23T04:29:26;5.28;;;3.80;;
24096;SDS011;12275;48.550;12.132;2022-07-23T04:31:52;6.15;;;3.40;;
24096;SDS011;12275;48.550;12.132;2022-07-23T04:34:18;5.22;;;4.00;;
24096;SDS011;12275;48.550;12.132;2022-07-23T04:36:44;4.70;;;4.20;;
24096;SDS011;12275;48.550;12.132;2022-07-23T04:39:10;5.07;;;3.42;;
24096;SDS011;12275;48.550;12.132;2022-07-23T04:41:35;4.95;;;4.45;;
24096;SDS011;12275;48.550;12.132;2022-07-23T04:44:01;5.53;;;4.03;;
24096;SDS011;12275;48.550;12.132;2022-07-23T04:46:27;7.15;;;4.53;;
24096;SDS011;12275;48.550;12.132;2022-07-23T04:48:53;8.52;;;4.20;;
24096;SDS011;12275;48.550;12.132;2022-07-23T04:51:19;6.00;;;4.03;;
24096;SDS011;12275;48.550;12.132;2022-07-23T04:53:44;8.32;;;4.32;;
24096;SDS011;12275;48.550;12.132;2022-07-23T04:56:10;7.72;;;4.80;;
24096;SDS011;12275;48.550;12.132;2022-07-23T04:58:36;4.75;;;4.20;;
24096;SDS011;12275;48.550;12.132;2022-07-23T05:01:01;7.13;;;4.97;;
24096;SDS011;12275;48.550;12.132;2022-07-23T05:03:27;7.50;;;5.30;;
24096;SDS011;12275;48.550;12.132;2022-07-23T05:05:53;8.05;;;5.25;;
24096;SDS011;12275;48.550;12.132;2022-07-23T05:08:22;9.23;;;5.13;;
24096;SDS011;12275;48.550;12.132;2022-07-23T05:10:51;6.78;;;5.15;;
24096;SDS011;12275;48.550;12.132;2022-07-23T05:13:17;5.38;;;4.88;;
24096;SDS011;12275;48.550;12.132;2022-07-23T05:15:43;8.75;;;4.78;;
24096;SDS011;12275;48.550;12.132;2022-07-23T05:18:09;6.68;;;4.25;;
24096;SDS011;12275;48.550;12.132;2022-07-23T05:20:35;6.05;;;5.13;;
24096;SDS011;12275;48.550;12.132;2022-07-23T05:23:01;10.00;;;4.70;;
24096;SDS011;12275;48.550;12.132;2022-07-23T05:25:27;5.70;;;4.88;;
24096;SDS011;12275;48.550;12.132;2022-07-23T05:27:53;6.30;;;5.00;;
24096;SDS011;12275;48.550;12.132;2022-07-23T05:30:20;6.22;;;4.85;;
24096;SDS011;12275;48.550;12.132;2022-07-23T05:32:46;7.30;;;4.88;;
24096;SDS011;12275;48.550;12.132;2022-07-23T05:35:16;7.45;;;4.68;;
24096;SDS011;12275;48.550;12.132;2022-07-23T05:37:42;5.47;;;4.97;;
24096;SDS011;12275;48.550;12.132;2022-07-23T05:40:09;5.15;;;4.68;;
24096;SDS011;12275;48.550;12.132;2022-07-23T05:42:35;5.53;;;4.80;;
24096;SDS011;12275;48.550;12.132;2022-07-23T05:45:07;5.43;;;4.40;;
24096;SDS011;12275;48.550;12.132;2022-07-23T05:50:25;3.92;;;3.63;;
24096;SDS011;12275;48.550;12.132;2022-07-23T05:52:51;8.10;;;4.60;;
24096;SDS011;12275;48.550;12.132;2022-07-23T05:55:17;5.88;;;4.20;;
24096;SDS011;12275;48.550;12.132;2022-07-23T05:57:43;5.47;;;4.10;;
24096;SDS011;12275;48.550;12.132;2022-07-23T06:00:09;13.40;;;4.50;;
24096;SDS011;12275;48.550;12.132;2022-07-23T06:02:39;8.40;;;4.10;;
24096;SDS011;12275;48.550;12.132;2022-07-23T06:05:26;4.63;;;4.22;;
24096;SDS011;12275;48.550;12.132;2022-07-23T06:08:19;5.35;;;4.28;;
24096;SDS011;12275;48.550;12.132;2022-07-23T06:10:44;8.23;;;5.13;;
24096;SDS011;12275;48.550;12.132;2022-07-23T06:13:11;5.47;;;4.60;;
24096;SDS011;12275;48.550;12.132;2022-07-23T06:15:37;7.85;;;4.85;;
24096;SDS011;12275;48.550;12.132;2022-07-23T06:18:05;8.43;;;4.90;;
24096;SDS011;12275;48.550;12.132;2022-07-23T06:20:31;5.63;;;4.80;;
24096;SDS011;12275;48.550;12.132;2022-07-23T06:22:57;6.32;;;4.65;;
24096;SDS011;12275;48.550;12.132;2022-07-23T06:25:22;5.80;;;4.30;;
24096;SDS011;12275;48.550;12.132;2022-07-23T06:27:48;6.38;;;5.05;;
24096;SDS011;12275;48.550;12.132;2022-07-23T06:30:15;4.50;;;3.95;;
24096;SDS011;12275;48.550;12.132;2022-07-23T06:32:43;6.07;;;4.68;;
24096;SDS011;12275;48.550;12.132;2022-07-23T06:35:10;5.78;;;4.28;;
24096;SDS011;12275;48.550;12.132;2022-07-23T06:37:38;9.30;;;4.43;;
24096;SDS011;12275;48.550;12.132;2022-07-23T06:40:12;8.02;;;4.50;;
24096;SDS011;12275;48.550;12.132;2022-07-23T06:42:38;9.77;;;4.00;;
24096;SDS011;12275;48.550;12.132;2022-07-23T06:45:06;7.43;;;4.82;;
24096;SDS011;12275;48.550;12.132;2022-07-23T06:47:33;6.22;;;4.60;;
24096;SDS011;12275;48.550;12.132;2022-07-23T06:49:58;5.90;;;4.90;;
24096;SDS011;12275;48.550;12.132;2022-07-23T06:52:24;11.43;;;4.53;;
24096;SDS011;12275;48.550;12.132;2022-07-23T06:54:51;5.15;;;4.43;;
24096;SDS011;12275;48.550;12.132;2022-07-23T06:57:17;8.07;;;4.38;;
24096;SDS011;12275;48.550;12.132;2022-07-23T06:59:43;4.75;;;3.80;;
24096;SDS011;12275;48.550;12.132;2022-07-23T07:02:08;5.18;;;4.07;;
24096;SDS011;12275;48.550;12.132;2022-07-23T07:04:34;5.30;;;4.15;;
24096;SDS011;12275;48.550;12.132;2022-07-23T07:07:00;6.88;;;4.80;;
24096;SDS011;12275;48.550;12.132;2022-07-23T07:09:26;4.93;;;4.50;;
24096;SDS011;12275;48.550;12.132;2022-07-23T07:11:52;9.32;;;4.55;;
24096;SDS011;12275;48.550;12.132;2022-07-23T07:14:17;5.90;;;4.90;;
24096;SDS011;12275;48.550;12.132;2022-07-23T07:16:43;7.35;;;4.57;;
24096;SDS011;12275;48.550;12.132;2022-07-23T07:19:09;6.35;;;5.00;;
24096;SDS011;12275;48.550;12.132;2022-07-23T07:21:35;5.13;;;4.47;;
24096;SDS011;12275;48.550;12.132;2022-07-23T07:24:01;5.68;;;4.75;;
24096;SDS011;12275;48.550;12.132;2022-07-23T07:26:27;13.02;;;4.70;;
24096;SDS011;12275;48.550;12.132;2022-07-23T07:28:53;8.13;;;4.82;;
24096;SDS011;12275;48.550;12.132;2022-07-23T07:31:18;5.60;;;4.80;;
24096;SDS011;12275;48.550;12.132;2022-07-23T07:33:44;8.13;;;5.18;;
24096;SDS011;12275;48.550;12.132;2022-07-23T07:36:10;6.13;;;5.05;;
24096;SDS011;12275;48.550;12.132;2022-07-23T07:38:35;5.35;;;4.60;;
24096;SDS011;12275;48.550;12.132;2022-07-23T07:41:01;7.00;;;5.78;;
24096;SDS011;12275;48.550;12.132;2022-07-23T07:43:27;7.43;;;5.63;;
24096;SDS011;12275;48.550;12.132;2022-07-23T07:45:53;7.22;;;5.47;;
24096;SDS011;12275;48.550;12.132;2022-07-23T07:48:18;6.72;;;5.85;;
24096;SDS011;12275;48.550;12.132;2022-07-23T07:50:44;5.70;;;5.18;;
24096;SDS011;12275;48.550;12.132;2022-07-23T07:53:09;8.93;;;5.43;;
24096;SDS011;12275;48.550;12.132;2022-07-23T07:55:35;7.32;;;6.32;;
24096;SDS011;12275;48.550;12.132;2022-07-23T07:58:01;9.75;;;5.90;;
24096;SDS011;12275;48.550;12.132;2022-07-23T08:00:26;6.20;;;5.60;;
24096;SDS011;12275;48.550;12.132;2022-07-23T08:02:53;6.47;;;5.88;;
24096;SDS011;12275;48.550;12.132;2022-07-23T08:05:20;6.03;;;5.43;;
24096;SDS011;12275;48.550;12.132;2022-07-23T08:07:53;8.30;;;5.73;;
24096;SDS011;12275;48.550;12.132;2022-07-23T08:10:19;7.03;;;5.70;;
24096;SDS011;12275;48.550;12.132;2022-07-23T08:12:46;9.02;;;6.15;;
24096;SDS011;12275;48.550;12.132;2022-07-23T08:15:14;7.30;;;6.60;;
24096;SDS011;12275;48.550;12.132;2022-07-23T08:17:42;10.07;;;6.25;;
24096;SDS011;12275;48.550;12.132;2022-07-23T08:20:10;8.57;;;7.07;;
24096;SDS011;12275;48.550;12.132;2022-07-23T08:25:26;7.75;;;6.82;;
24096;SDS011;12275;48.550;12.132;2022-07-23T08:27:55;10.23;;;6.95;;
24096;SDS011;12275;48.550;12.132;2022-07-23T08:30:22;8.70;;;6.57;;
24096;SDS011;12275;48.550;12.132;2022-07-23T08:32:51;10.07;;;6.85;;
24096;SDS011;12275;48.550;12.132;2022-07-23T08:35:29;10.75;;;7.15;;
24096;SDS011;12275;48.550;12.132;2022-07-23T08:37:59;8.48;;;6.35;;
24096;SDS011;12275;48.550;12.132;2022-07-23T08:40:26;6.55;;;5.95;;
24096;SDS011;12275;48.550;12.132;2022-07-23T08:42:53;7.95;;;7.15;;
24096;SDS011;12275;48.550;12.132;2022-07-23T08:45:20;10.38;;;6.32;;
24096;SDS011;12275;48.550;12.132;2022-07-23T08:47:48;10.85;;;7.25;;
24096;SDS011;12275;48.550;12.132;2022-07-23T08:50:15;18.38;;;10.02;;
24096;SDS011;12275;48.550;12.132;2022-07-23T08:52:41;11.38;;;6.60;;
24096;SDS011;12275;48.550;12.132;2022-07-23T08:55:07;8.88;;;7.05;;
24096;SDS011;12275;48.550;12.132;2022-07-23T08:57:34;6.95;;;6.28;;
24096;SDS011;12275;48.550;12.132;2022-07-23T09:00:00;8.02;;;7.20;;
24096;SDS011;12275;48.550;12.132;2022-07-23T09:02:26;11.98;;;7.10;;
24096;SDS011;12275;48.550;12.132;2022-07-23T09:04:52;7.80;;;6.70;;
24096;SDS011;12275;48.550;12.132;2022-07-23T09:07:17;7.70;;;6.90;;
24096;SDS011;12275;48.550;12.132;2022-07-23T09:09:43;7.53;;;6.70;;
24096;SDS011;12275;48.550;12.132;2022-07-23T09:12:09;7.93;;;7.18;;
24096;SDS011;12275;48.550;12.132;2022-07-23T09:14:45;12.20;;;7.00;;
24096;SDS011;12275;48.550;12.132;2022-07-23T09:17:15;11.27;;;7.10;;
24096;SDS011;12275;48.550;12.132;2022-07-23T09:19:42;11.10;;;7.20;;
24096;SDS011;12275;48.550;12.132;2022-07-23T09:22:22;9.68;;;7.90;;
24096;SDS011;12275;48.550;12.132;2022-07-23T09:25:05;9.70;;;7.65;;
24096;SDS011;12275;48.550;12.132;2022-07-23T09:27:45;8.95;;;7.18;;
24096;SDS011;12275;48.550;12.132;2022-07-23T09:30:21;7.82;;;7.13;;
24096;SDS011;12275;48.550;12.132;2022-07-23T09:38:20;13.35;;;8.65;;
24096;SDS011;12275;48.550;12.132;2022-07-23T09:41:11;10.25;;;8.10;;
24096;SDS011;12275;48.550;12.132;2022-07-23T09:43:38;8.90;;;8.00;;
24096;SDS011;12275;48.550;12.132;2022-07-23T09:46:23;12.25;;;7.20;;
24096;SDS011;12275;48.550;12.132;2022-07-23T09:48:51;9.18;;;7.82;;
24096;SDS011;12275;48.550;12.132;2022-07-23T09:51:22;10.80;;;7.50;;
24096;SDS011;12275;48.550;12.132;2022-07-23T09:53:54;9.85;;;8.00;;
24096;SDS011;12275;48.550;12.132;2022-07-23T09:56:19;11.13;;;7.72;;
24096;SDS011;12275;48.550;12.132;2022-07-23T09:58:47;9.13;;;7.15;;
24096;SDS011;12275;48.550;12.132;2022-07-23T10:01:28;9.30;;;7.28;;
24096;SDS011;12275;48.550;12.132;2022-07-23T10:03:54;9.35;;;7.40;;
24096;SDS011;12275;48.550;12.132;2022-07-23T10:06:20;7.45;;;6.75;;
24096;SDS011;12275;48.550;12.132;2022-07-23T10:08:47;7.93;;;7.13;;
24096;SDS011;12275;48.550;12.132;2022-07-23T10:11:14;8.27;;;7.30;;
24096;SDS011;12275;48.550;12.132;2022-07-23T10:13:42;11.52;;;7.35;;
24096;SDS011;12275;48.550;12.132;2022-07-23T10:16:19;8.52;;;7.00;;
24096;SDS011;12275;48.550;12.132;2022-07-23T10:18:46;10.25;;;7.05;;
24096;SDS011;12275;48.550;12.132;2022-07-23T10:21:12;7.05;;;6.35;;
24096;SDS011;12275;48.550;12.132;2022-07-23T10:24:22;7.57;;;6.85;;
24096;SDS011;12275;48.550;12.132;2022-07-23T10:29:30;7.20;;;6.55;;
24096;SDS011;12275;48.550;12.132;2022-07-23T10:35:47;7.82;;;6.85;;
24096;SDS011;12275;48.550;12.132;2022-07-23T10:38:55;7.88;;;6.97;;
24096;SDS011;12275;48.550;12.132;2022-07-23T10:41:30;7.85;;;7.05;;
24096;SDS011;12275;48.550;12.132;2022-07-23T10:44:13;7.40;;;6.70;;
24096;SDS011;12275;48.550;12.132;2022-07-23T10:47:20;7.32;;;6.63;;
24096;SDS011;12275;48.550;12.132;2022-07-23T10:49:33;7.25;;;6.60;;
24096;SDS011;12275;48.550;12.132;2022-07-23T10:54:44;8.73;;;7.05;;
24096;SDS011;12275;48.550;12.132;2022-07-23T10:57:12;9.63;;;7.20;;
24096;SDS011;12275;48.550;12.132;2022-07-23T11:02:34;7.78;;;6.97;;
24096;SDS011;12275;48.550;12.132;2022-07-23T11:05:03;12.18;;;7.18;;
24096;SDS011;12275;48.550;12.132;2022-07-23T11:07:31;8.48;;;7.40;;
24096;SDS011;12275;48.550;12.132;2022-07-23T11:09:57;9.23;;;6.80;;
24096;SDS011;12275;48.550;12.132;2022-07-23T11:17:27;6.88;;;6.28;;
24096;SDS011;12275;48.550;12.132;2022-07-23T11:25:02;6.07;;;5.47;;
24096;SDS011;12275;48.550;12.132;2022-07-23T11:27:38;6.15;;;5.57;;
24096;SDS011;12275;48.550;12.132;2022-07-23T11:30:09;6.72;;;5.65;;
24096;SDS011;12275;48.550;12.132;2022-07-23T11:32:37;6.45;;;5.85;;
24096;SDS011;12275;48.550;12.132;2022-07-23T11:35:23;7.10;;;6.40;;
24096;SDS011;12275;48.550;12.132;2022-07-23T11:37:54;7.50;;;5.88;;
24096;SDS011;12275;48.550;12.132;2022-07-23T11:40:27;9.07;;;6.45;;
24096;SDS011;12275;48.550;12.132;2022-07-23T11:45:24;7.28;;;6.57;;
24096;SDS011;12275;48.550;12.132;2022-07-23T11:47:55;6.85;;;6.18;;
24096;SDS011;12275;48.550;12.132;2022-07-23T11:50:23;7.50;;;6.38;;
24096;SDS011;12275;48.550;12.132;2022-07-23T11:52:50;9.23;;;6.15;;
24096;SDS011;12275;48.550;12.132;2022-07-23T11:55:17;9.93;;;7.63;;
24096;SDS011;12275;48.550;12.132;2022-07-23T11:57:43;9.18;;;6.85;;
24096;SDS011;12275;48.550;12.132;2022-07-23T12:03:01;7.10;;;6.40;;
24096;SDS011;12275;48.550;12.132;2022-07-23T12:05:29;7.32;;;6.60;;
24096;SDS011;12275;48.550;12.132;2022-07-23T12:07:56;10.93;;;6.43;;
24096;SDS011;12275;48.550;12.132;2022-07-23T12:10:24;6.85;;;6.15;;
24096;SDS011;12275;48.550;12.132;2022-07-23T12:12:51;8.63;;;6.88;;
24096;SDS011;12275;48.550;12.132;2022-07-23T12:15:29;7.43;;;6.78;;
24096;SDS011;12275;48.550;12.132;2022-07-23T12:17:58;9.90;;;6.97;;
24096;SDS011;12275;48.550;12.132;2022-07-23T12:20:26;8.85;;;6.72;;
24096;SDS011;12275;48.550;12.132;2022-07-23T12:22:59;10.30;;;6.80;;
24096;SDS011;12275;48.550;12.132;2022-07-23T12:25:30;9.98;;;7.30;;
24096;SDS011;12275;48.550;12.132;2022-07-23T12:28:02;7.55;;;6.63;;
24096;SDS011;12275;48.550;12.132;2022-07-23T12:30:30;9.60;;;7.20;;
24096;SDS011;12275;48.550;12.132;2022-07-23T12:32:58;6.88;;;6.18;;
24096;SDS011;12275;48.550;12.132;2022-07-23T12:35:29;9.68;;;6.80;;
24096;SDS011;12275;48.550;12.132;2022-07-23T12:37:59;7.68;;;7.05;;
24096;SDS011;12275;48.550;12.132;2022-07-23T12:40:28;8.40;;;6.97;;
24096;SDS011;12275;48.550;12.132;2022-07-23T12:43:29;10.75;;;7.47;;
24096;SDS011;12275;48.550;12.132;2022-07-23T12:46:01;11.43;;;7.60;;
24096;SDS011;12275;48.550;12.132;2022-07-23T12:48:30;7.60;;;6.80;;
24096;SDS011;12275;48.550;12.132;2022-07-23T12:53:38;9.23;;;6.97;;
24096;SDS011;12275;48.550;12.132;2022-07-23T12:56:07;8.57;;;7.68;;
24096;SDS011;12275;48.550;12.132;2022-07-23T12:58:57;10.35;;;7.28;;
24096;SDS011;12275;48.550;12.132;2022-07-23T13:06:31;11.00;;;6.97;;
24096;SDS011;12275;48.550;12.132;2022-07-23T13:08:58;8.10;;;7.00;;
24096;SDS011;12275;48.550;12.132;2022-07-23T13:11:24;8.25;;;7.32;;
24096;SDS011;12275;48.550;12.132;2022-07-23T13:13:50;10.02;;;7.80;;
24096;SDS011;12275;48.550;12.132;2022-07-23T13:16:16;8.85;;;6.75;;
24096;SDS011;12275;48.550;12.132;2022-07-23T13:18:42;8.15;;;7.13;;
24096;SDS011;12275;48.550;12.132;2022-07-23T13:21:08;7.97;;;7.10;;
24096;SDS011;12275;48.550;12.132;2022-07-23T13:23:34;7.93;;;7.13;;
24096;SDS011;12275;48.550;12.132;2022-07-23T13:26:00;7.97;;;7.20;;
24096;SDS011;12275;48.550;12.132;2022-07-23T13:28:25;8.10;;;7.40;;
24096;SDS011;12275;48.550;12.132;2022-07-23T13:30:52;7.20;;;6.60;;
24096;SDS011;12275;48.550;12.132;2022-07-23T13:33:18;8.48;;;7.38;;
24096;SDS011;12275;48.550;12.132;2022-07-23T13:35:46;8.20;;;7.25;;
24096;SDS011;12275;48.550;12.132;2022-07-23T13:38:12;7.97;;;6.85;;
24096;SDS011;12275;48.550;12.132;2022-07-23T13:40:39;8.25;;;7.53;;
24096;SDS011;12275;48.550;12.132;2022-07-23T13:43:08;10.25;;;6.95;;
24096;SDS011;12275;48.550;12.132;2022-07-23T13:45:35;9.07;;;7.28;;
24096;SDS011;12275;48.550;12.132;2022-07-23T13:48:02;8.60;;;7.55;;
24096;SDS011;12275;48.550;12.132;2022-07-23T13:50:29;7.78;;;7.07;;
24096;SDS011;12275;48.550;12.132;2022-07-23T13:52:54;7.82;;;6.72;;
24096;SDS011;12275;48.550;12.132;2022-07-23T13:55:20;9.02;;;7.25;;
24096;SDS011;12275;48.550;12.132;2022-07-23T13:57:46;7.95;;;6.95;;
24096;SDS011;12275;48.550;12.132;2022-07-23T14:00:12;10.57;;;7.05;;
24096;SDS011;12275;48.550;12.132;2022-07-23T14:02:39;7.50;;;6.82;;
24096;SDS011;12275;48.550;12.132;2022-07-23T14:05:06;8.20;;;7.50;;
24096;SDS011;12275;48.550;12.132;2022-07-23T14:07:34;8.88;;;7.53;;
24096;SDS011;12275;48.550;12.132;2022-07-23T14:10:01;7.38;;;6.60;;
24096;SDS011;12275;48.550;12.132;2022-07-23T14:12:28;8.57;;;7.03;;
24096;SDS011;12275;48.550;12.132;2022-07-23T14:14:54;8.63;;;6.85;;
24096;SDS011;12275;48.550;12.132;2022-07-23T14:17:19;11.38;;;7.18;;
24096;SDS011;12275;48.550;12.132;2022-07-23T14:19:45;7.28;;;6.40;;
24096;SDS011;12275;48.550;12.132;2022-07-23T14:22:11;7.65;;;6.95;;
24096;SDS011;12275;48.550;12.132;2022-07-23T14:24:36;7.80;;;7.00;;
24096;SDS011;12275;48.550;12.132;2022-07-23T14:27:02;7.35;;;6.65;;
24096;SDS011;12275;48.550;12.132;2022-07-23T14:29:29;8.48;;;7.68;;
24096;SDS011;12275;48.550;12.132;2022-07-23T14:31:56;9.30;;;7.18;;
24096;SDS011;12275;48.550;12.132;2022-07-23T14:34:22;7.95;;;7.13;;
24096;SDS011;12275;48.550;12.132;2022-07-23T14:36:48;7.78;;;7.07;;
24096;SDS011;12275;48.550;12.132;2022-07-23T14:39:14;9.98;;;6.60;;
24096;SDS011;12275;48.550;12.132;2022-07-23T14:41:39;10.02;;;7.75;;
24096;SDS011;12275;48.550;12.132;2022-07-23T14:44:05;9.38;;;7.22;;
24096;SDS011;12275;48.550;12.132;2022-07-23T14:46:31;10.48;;;7.97;;
24096;SDS011;12275;48.550;12.132;2022-07-23T14:48:57;7.57;;;6.85;;
24096;SDS011;12275;48.550;12.132;2022-07-23T14:51:23;9.07;;;7.85;;
24096;SDS011;12275;48.550;12.132;2022-07-23T14:53:48;8.88;;;8.07;;
24096;SDS011;12275;48.550;12.132;2022-07-23T14:56:14;11.02;;;7.65;;
24096;SDS011;12275;48.550;12.132;2022-07-23T14:58:40;9.48;;;8.38;;
24096;SDS011;12275;48.550;12.132;2022-07-23T15:01:06;8.52;;;7.72;;
24096;SDS011;12275;48.550;12.132;2022-07-23T15:03:32;11.07;;;7.53;;
24096;SDS011;12275;48.550;12.132;2022-07-23T15:05:58;8.90;;;7.55;;
24096;SDS011;12275;48.550;12.132;2022-07-23T15:08:24;7.95;;;7.30;;
24096;SDS011;12275;48.550;12.132;2022-07-23T15:10:50;8.55;;;7.70;;
24096;SDS011;12275;48.550;12.132;2022-07-23T15:13:15;8.88;;;7.97;;
24096;SDS011;12275;48.550;12.132;2022-07-23T15:15:42;12.20;;;7.68;;
24096;SDS011;12275;48.550;12.132;2022-07-23T15:18:07;10.05;;;7.82;;